Time;durP1;ratioP1;P1;durP2;ratioP2;P2;SDS_P1;SDS_P2;PMS_P1;PMS_P2;Temp;Humidity;BMP_temperature;BMP_pressure;BME280_temperature;BME280_humidity;BME280_pressure;Samples;Min_cycle;Max_cycle;Signal;HPM_P1;HPM_P2
2022/07/24 00:01:50;;;;;;;16.40;14.80;;;21.40;99.90;;;;;;5038242;28;20171;-84
2022/07/24 00:04:17;;;;;;;19.23;13.68;;;21.30;99.90;;;;;;5042475;28;20198;-85
2022/07/24 00:06:44;;;;;;;23.20;14.60;;;21.20;99.90;;;;;;5049232;28;20200;-82
2022/07/24 00:09:10;;;;;;;17.13;15.15;;;21.20;99.90;;;;;;5053091;28;20172;-85
2022/07/24 00:11:37;;;;;;;15.32;13.70;;;21.00;99.90;;;;;;5045507;28;20156;-83
2022/07/24 00:14:03;;;;;;;17.05;14.23;;;21.10;99.90;;;;;;5050301;28;20176;-86
2022/07/24 00:16:29;;;;;;;16.27;14.57;;;21.20;99.90;;;;;;5039812;28;20243;-83
2022/07/24 00:18:55;;;;;;;22.35;15.38;;;21.10;99.90;;;;;;5038161;28;20226;-82
2022/07/24 00:21:21;;;;;;;24.75;16.95;;;21.10;99.90;;;;;;5038275;28;20191;-83
2022/07/24 00:23:47;;;;;;;22.48;17.58;;;21.30;99.90;;;;;;5040160;28;20178;-86
2022/07/24 00:26:13;;;;;;;22.55;15.80;;;21.30;99.90;;;;;;5040641;28;20262;-83
2022/07/24 00:28:39;;;;;;;19.13;16.42;;;21.20;99.90;;;;;;5039279;28;20568;-83
2022/07/24 00:31:06;;;;;;;17.05;15.15;;;21.30;99.90;;;;;;5040254;28;20175;-86
2022/07/24 00:33:33;;;;;;;15.68;14.07;;;21.30;99.90;;;;;;5039003;28;20199;-84
2022/07/24 00:36:04;;;;;;;18.83;15.02;;;21.30;99.90;;;;;;5039729;28;20294;-84
2022/07/24 00:38:30;;;;;;;28.27;16.45;;;21.10;99.90;;;;;;5039868;28;20172;-85
2022/07/24 00:40:56;;;;;;;32.30;16.08;;;21.10;99.90;;;;;;5039697;28;20168;-84
2022/07/24 00:43:22;;;;;;;18.80;16.02;;;20.90;99.90;;;;;;5045356;28;20171;-85
2022/07/24 00:45:47;;;;;;;24.40;16.40;;;20.90;99.90;;;;;;5039984;28;20706;-86
2022/07/24 00:48:13;;;;;;;19.77;17.63;;;21.00;99.90;;;;;;5041547;28;20176;-84
2022/07/24 00:50:39;;;;;;;20.75;16.55;;;20.90;99.90;;;;;;5041586;28;20167;-83
2022/07/24 00:53:08;;;;;;;18.33;16.48;;;20.80;99.90;;;;;;5040762;28;20242;-85
2022/07/24 00:55:35;;;;;;;21.73;18.00;;;20.80;99.90;;;;;;5040567;28;20188;-83
2022/07/24 00:58:01;;;;;;;25.17;18.02;;;20.90;99.90;;;;;;5039620;28;20302;-84
2022/07/24 01:00:26;;;;;;;29.50;20.67;;;20.80;99.90;;;;;;5041975;28;20164;-83
2022/07/24 01:02:52;;;;;;;27.90;21.02;;;20.90;99.90;;;;;;5040144;28;20168;-83
2022/07/24 01:05:19;;;;;;;24.13;19.60;;;20.80;99.90;;;;;;5035315;28;20326;-86
2022/07/24 01:07:45;;;;;;;24.45;18.85;;;20.90;99.90;;;;;;5034739;28;20635;-84
2022/07/24 01:10:11;;;;;;;25.77;18.40;;;20.90;99.90;;;;;;5034743;28;20218;-84
2022/07/24 01:12:39;;;;;;;28.55;19.83;;;20.80;99.90;;;;;;5034595;28;20546;-84
2022/07/24 01:15:07;;;;;;;27.40;20.52;;;20.70;99.90;;;;;;5035733;28;20178;-86
2022/07/24 01:17:35;;;;;;;35.65;22.23;;;20.60;99.90;;;;;;5034300;28;20217;-83
2022/07/24 01:20:02;;;;;;;28.05;21.02;;;20.70;99.90;;;;;;5036350;28;20187;-82
2022/07/24 01:22:27;;;;;;;27.27;21.85;;;20.70;99.90;;;;;;5034406;28;20179;-86
2022/07/24 01:24:54;;;;;;;27.23;21.02;;;20.60;99.90;;;;;;5035512;28;20172;-86
2022/07/24 01:27:21;;;;;;;28.67;21.85;;;20.70;99.90;;;;;;5034512;28;20184;-83
2022/07/24 01:29:47;;;;;;;35.28;22.75;;;20.50;99.90;;;;;;5035597;28;20166;-83
2022/07/24 01:32:12;;;;;;;25.73;20.27;;;20.50;99.90;;;;;;5035603;28;20259;-85
2022/07/24 01:34:38;;;;;;;28.55;22.42;;;20.60;99.90;;;;;;5035427;28;20210;-83
2022/07/24 01:37:04;;;;;;;34.97;21.65;;;20.60;99.90;;;;;;5033940;28;20667;-85
2022/07/24 01:39:29;;;;;;;35.47;22.95;;;20.40;99.90;;;;;;5035455;28;20226;-83
2022/07/24 01:41:55;;;;;;;37.00;23.17;;;20.40;99.90;;;;;;5035911;28;20267;-85
2022/07/24 01:44:21;;;;;;;33.38;22.48;;;20.50;99.90;;;;;;5034822;28;20616;-86
2022/07/24 01:46:46;;;;;;;31.92;22.73;;;20.50;99.90;;;;;;5035912;28;20191;-84
2022/07/24 01:49:12;;;;;;;31.38;22.75;;;20.50;99.90;;;;;;5034021;28;20167;-86
2022/07/24 01:51:37;;;;;;;32.70;24.10;;;20.50;99.90;;;;;;5034641;28;20195;-86
2022/07/24 01:54:03;;;;;;;35.17;22.30;;;20.40;99.90;;;;;;5034262;28;20164;-84
2022/07/24 01:56:30;;;;;;;31.13;23.08;;;20.30;99.90;;;;;;5034655;28;20238;-86
2022/07/24 01:58:56;;;;;;;34.88;24.63;;;20.30;99.90;;;;;;5033509;28;20210;-84
2022/07/24 02:01:22;;;;;;;31.63;22.98;;;20.40;99.90;;;;;;5034980;28;20192;-86
2022/07/24 02:03:48;;;;;;;29.13;21.33;;;20.30;99.90;;;;;;5034798;28;20175;-85
2022/07/24 02:06:14;;;;;;;31.95;20.75;;;20.20;99.90;;;;;;5033531;28;20198;-86
2022/07/24 02:08:40;;;;;;;29.02;20.75;;;20.10;99.90;;;;;;5034446;28;20167;-85
2022/07/24 02:11:06;;;;;;;36.15;20.20;;;20.00;99.90;;;;;;5034649;28;20168;-88
2022/07/24 02:13:32;;;;;;;29.63;20.35;;;19.90;99.90;;;;;;5033561;28;20164;-83
2022/07/24 02:15:57;;;;;;;29.88;19.45;;;20.00;99.90;;;;;;5034528;28;20192;-85
2022/07/24 02:18:23;;;;;;;29.33;18.65;;;19.90;99.90;;;;;;5033583;28;20179;-84
2022/07/24 02:20:49;;;;;;;29.48;19.23;;;20.10;99.90;;;;;;5034268;28;20175;-82
2022/07/24 02:23:17;;;;;;;25.67;19.45;;;20.00;99.90;;;;;;5033221;28;20174;-83
2022/07/24 02:25:45;;;;;;;26.60;18.08;;;20.20;99.90;;;;;;5034415;28;20535;-86
2022/07/24 02:28:11;;;;;;;25.63;16.33;;;20.20;99.90;;;;;;5033099;28;20172;-86
2022/07/24 02:30:36;;;;;;;20.15;14.77;;;20.20;99.90;;;;;;5039186;28;20558;-83
2022/07/24 02:33:02;;;;;;;19.20;14.85;;;20.30;99.90;;;;;;5046074;28;20172;-82
2022/07/24 02:35:28;;;;;;;17.80;13.50;;;20.20;99.90;;;;;;5051863;28;20230;-87
2022/07/24 02:37:53;;;;;;;28.33;14.32;;;20.30;99.90;;;;;;5034708;28;20694;-87
2022/07/24 02:40:19;;;;;;;25.67;15.93;;;20.30;99.90;;;;;;5034083;28;20262;-85
2022/07/24 02:42:44;;;;;;;21.10;15.70;;;20.20;99.90;;;;;;5033962;28;20171;-83
2022/07/24 02:45:11;;;;;;;24.65;16.27;;;20.10;99.90;;;;;;5033761;28;20647;-85
2022/07/24 02:47:52;;;;;;;25.15;15.43;;;20.10;99.90;;;;;;5033761;28;20172;-85
2022/07/24 02:50:20;;;;;;;25.67;17.33;;;20.00;99.90;;;;;;5033732;28;20164;-86
2022/07/24 02:52:46;;;;;;;25.23;16.92;;;20.00;99.90;;;;;;5032404;28;20627;-84
2022/07/24 02:55:12;;;;;;;32.05;19.30;;;20.20;99.90;;;;;;5032913;28;20167;-84
2022/07/24 02:57:37;;;;;;;25.17;18.48;;;20.10;99.90;;;;;;5033661;28;20215;-84
2022/07/24 03:00:09;;;;;;;21.70;18.42;;;20.20;99.90;;;;;;5032688;28;20170;-85
2022/07/24 03:02:35;;;;;;;24.40;18.38;;;20.20;99.90;;;;;;5032638;28;20639;-85
2022/07/24 03:05:03;;;;;;;29.00;17.70;;;20.20;99.90;;;;;;5032446;28;20174;-83
2022/07/24 03:07:29;;;;;;;24.90;16.65;;;20.00;99.90;;;;;;5032301;28;20168;-83
2022/07/24 03:09:54;;;;;;;22.42;16.48;;;19.90;99.90;;;;;;5032228;28;20167;-85
2022/07/24 03:12:20;;;;;;;24.30;18.33;;;19.90;99.90;;;;;;5032454;28;20175;-84
2022/07/24 03:14:45;;;;;;;27.85;19.55;;;20.00;99.90;;;;;;5033551;28;20263;-84
2022/07/24 03:17:11;;;;;;;23.95;19.20;;;20.00;99.90;;;;;;5032129;28;20234;-85
2022/07/24 03:19:37;;;;;;;31.80;19.30;;;19.90;99.90;;;;;;5033520;28;20190;-83
2022/07/24 03:22:03;;;;;;;36.03;19.02;;;20.00;99.90;;;;;;5033658;28;20168;-83
2022/07/24 03:24:28;;;;;;;37.22;19.08;;;20.10;99.90;;;;;;5031968;28;20184;-84
2022/07/24 03:26:54;;;;;;;26.52;17.98;;;19.90;99.90;;;;;;5033240;28;20679;-85
2022/07/24 03:29:20;;;;;;;30.58;18.00;;;19.70;99.90;;;;;;5033513;28;20259;-83
2022/07/24 03:31:46;;;;;;;25.35;20.10;;;19.50;99.90;;;;;;5033565;28;20237;-84
2022/07/24 03:34:11;;;;;;;24.55;18.20;;;19.60;99.90;;;;;;5032139;28;20597;-87
2022/07/24 03:36:37;;;;;;;28.15;17.67;;;19.60;99.90;;;;;;5031867;28;20210;-88
2022/07/24 03:39:04;;;;;;;24.92;18.83;;;19.60;99.90;;;;;;5032094;28;20253;-84
2022/07/24 03:41:29;;;;;;;24.08;18.73;;;19.70;99.90;;;;;;5032002;28;20169;-84
2022/07/24 03:43:55;;;;;;;27.45;17.42;;;19.70;99.90;;;;;;5031171;28;20171;-86
2022/07/24 03:46:21;;;;;;;32.70;19.17;;;19.70;99.90;;;;;;5033268;28;20187;-85
2022/07/24 03:48:46;;;;;;;26.88;17.55;;;19.50;99.90;;;;;;5032951;28;20234;-84
2022/07/24 03:51:12;;;;;;;26.98;18.15;;;19.60;99.90;;;;;;5032098;28;20178;-84
2022/07/24 03:53:38;;;;;;;29.95;16.63;;;19.80;99.90;;;;;;5031863;28;20187;-84
2022/07/24 03:56:08;;;;;;;23.67;16.63;;;19.90;99.90;;;;;;5031634;28;20191;-86
2022/07/24 03:58:34;;;;;;;31.08;18.40;;;19.80;99.90;;;;;;5031740;28;20202;-86
2022/07/24 04:00:59;;;;;;;18.65;16.75;;;19.70;99.90;;;;;;5031816;28;20527;-82
2022/07/24 04:03:25;;;;;;;24.73;16.83;;;19.80;99.90;;;;;;5031909;28;20682;-86
2022/07/24 04:05:50;;;;;;;24.65;17.30;;;19.80;99.90;;;;;;5031873;28;20709;-84
2022/07/24 04:08:16;;;;;;;24.50;16.77;;;19.60;99.90;;;;;;5032967;28;20243;-84
2022/07/24 04:10:42;;;;;;;22.35;16.45;;;19.60;99.90;;;;;;5031868;28;20160;-84
2022/07/24 04:13:08;;;;;;;27.08;15.32;;;19.50;99.90;;;;;;5031822;28;20175;-83
2022/07/24 04:15:33;;;;;;;16.13;14.43;;;19.60;99.90;;;;;;5033940;28;20191;-83
2022/07/24 04:17:59;;;;;;;24.40;15.27;;;19.70;99.90;;;;;;5034835;28;20204;-84
2022/07/24 04:20:26;;;;;;;33.63;16.40;;;19.50;99.90;;;;;;5033553;28;20246;-84
2022/07/24 04:22:51;;;;;;;24.30;16.50;;;19.50;99.90;;;;;;5032410;28;20175;-81
2022/07/24 04:25:17;;;;;;;19.60;15.05;;;19.50;99.90;;;;;;5033523;28;20239;-86
2022/07/24 04:27:47;;;;;;;25.42;15.40;;;19.50;99.90;;;;;;5037831;28;20177;-85
2022/07/24 04:30:13;;;;;;;24.10;15.32;;;19.50;99.90;;;;;;5034130;28;20191;-86
2022/07/24 04:32:39;;;;;;;22.67;14.88;;;19.60;99.90;;;;;;5038843;28;20208;-83
2022/07/24 04:35:05;;;;;;;22.10;15.70;;;19.70;99.90;;;;;;5033852;28;20156;-85
2022/07/24 04:37:31;;;;;;;21.90;15.20;;;19.60;99.90;;;;;;5033604;28;20291;-83
2022/07/24 04:39:57;;;;;;;26.88;15.25;;;19.70;99.90;;;;;;5032821;28;20187;-83
2022/07/24 04:42:23;;;;;;;30.85;14.70;;;19.70;99.90;;;;;;5033739;28;20627;-84
2022/07/24 04:44:48;;;;;;;15.57;13.07;;;19.60;99.90;;;;;;5032145;28;20616;-85
2022/07/24 04:47:14;;;;;;;19.25;13.60;;;19.70;99.90;;;;;;5032892;28;20198;-82
2022/07/24 04:49:43;;;;;;;15.82;12.95;;;19.80;99.90;;;;;;5037201;28;20174;-83
2022/07/24 04:52:08;;;;;;;15.95;13.20;;;19.80;99.90;;;;;;5033261;28;20380;-82
2022/07/24 04:54:34;;;;;;;18.13;12.40;;;19.80;99.90;;;;;;5037525;28;20172;-86
2022/07/24 04:57:01;;;;;;;14.25;11.63;;;19.80;99.90;;;;;;5046981;28;20218;-81
2022/07/24 04:59:26;;;;;;;18.63;13.00;;;20.00;99.90;;;;;;5047413;28;20172;-82
2022/07/24 05:01:52;;;;;;;22.40;13.57;;;20.20;99.90;;;;;;5035576;28;20172;-85
2022/07/24 05:04:17;;;;;;;21.85;12.30;;;20.30;99.90;;;;;;5040480;28;20659;-82
2022/07/24 05:06:46;;;;;;;13.80;11.55;;;20.30;99.90;;;;;;5036698;28;20195;-83
2022/07/24 05:09:11;;;;;;;15.95;10.18;;;20.20;99.90;;;;;;5037408;28;20164;-84
2022/07/24 05:11:37;;;;;;;13.38;11.38;;;20.20;99.90;;;;;;5036933;28;20233;-87
2022/07/24 05:14:16;;;;;;;19.27;12.38;;;20.00;99.90;;;;;;5038130;28;20172;-82
2022/07/24 05:16:43;;;;;;;16.88;12.32;;;20.10;99.90;;;;;;5046188;28;20230;-84
2022/07/24 05:19:11;;;;;;;19.17;11.90;;;20.20;99.90;;;;;;5040671;28;20663;-83
2022/07/24 05:21:37;;;;;;;18.08;12.23;;;20.40;99.90;;;;;;5039860;28;20187;-86
2022/07/24 05:24:03;;;;;;;22.45;11.65;;;20.50;99.90;;;;;;5037413;28;20160;-87
2022/07/24 05:26:32;;;;;;;14.43;11.65;;;20.50;99.90;;;;;;5037059;28;20188;-83
2022/07/24 05:29:03;;;;;;;29.13;10.93;;;20.50;99.90;;;;;;5033671;28;20636;-86
2022/07/24 05:31:29;;;;;;;13.05;10.90;;;20.40;99.90;;;;;;5035221;28;20195;-82
2022/07/24 05:33:54;;;;;;;14.02;10.45;;;20.50;99.90;;;;;;5035224;28;20200;-81
2022/07/24 05:36:20;;;;;;;27.98;9.85;;;20.90;99.90;;;;;;5033597;28;20294;-81
2022/07/24 05:38:47;;;;;;;21.88;10.95;;;21.00;99.90;;;;;;5035979;28;20164;-81
2022/07/24 05:41:13;;;;;;;13.15;9.45;;;21.00;99.90;;;;;;5039547;28;20195;-81
2022/07/24 05:43:38;;;;;;;16.13;10.43;;;21.00;99.90;;;;;;5043552;28;20163;-81
2022/07/24 05:46:05;;;;;;;14.68;10.07;;;21.20;99.90;;;;;;5043428;28;20191;-81
2022/07/24 05:48:46;;;;;;;14.93;10.45;;;21.10;99.90;;;;;;5042917;28;20172;-81
2022/07/24 05:51:12;;;;;;;9.80;8.90;;;21.30;99.90;;;;;;5042467;28;20172;-81
2022/07/24 05:53:38;;;;;;;12.45;8.43;;;21.40;99.90;;;;;;5048917;28;20168;-86
2022/07/24 05:56:04;;;;;;;13.13;8.55;;;21.40;99.90;;;;;;5053971;28;20183;-82
2022/07/24 05:58:30;;;;;;;16.90;9.25;;;21.50;99.90;;;;;;5055091;28;20242;-84
2022/07/24 06:00:55;;;;;;;15.02;8.75;;;21.60;99.90;;;;;;5057231;28;20231;-88
2022/07/24 06:03:21;;;;;;;10.45;8.45;;;21.60;99.90;;;;;;5053788;28;20175;-82
2022/07/24 06:05:47;;;;;;;11.38;7.70;;;21.40;99.90;;;;;;5052917;28;20199;-80
2022/07/24 06:08:12;;;;;;;9.43;7.32;;;21.40;99.90;;;;;;5045196;28;20667;-83
2022/07/24 06:10:38;;;;;;;11.40;8.13;;;21.50;99.90;;;;;;5034807;28;20636;-80
2022/07/24 06:13:04;;;;;;;9.32;6.28;;;21.30;99.90;;;;;;5035170;28;20647;-88
2022/07/24 06:15:30;;;;;;;7.28;6.57;;;21.50;99.90;;;;;;5036229;28;20547;-87
2022/07/24 06:17:55;;;;;;;15.70;7.30;;;21.90;99.90;;;;;;5037163;28;20231;-86
2022/07/24 06:20:21;;;;;;;18.42;7.95;;;21.80;99.90;;;;;;5040070;28;20208;-88
2022/07/24 06:22:47;;;;;;;15.40;7.13;;;21.80;99.90;;;;;;5033442;28;20203;-89
2022/07/24 06:25:14;;;;;;;9.73;6.60;;;21.90;99.90;;;;;;5034480;28;20163;-87
2022/07/24 06:27:41;;;;;;;10.55;6.68;;;22.00;99.90;;;;;;5033827;28;20171;-85
2022/07/24 06:30:11;;;;;;;9.88;5.63;;;22.20;99.90;;;;;;5034399;28;20186;-81
2022/07/24 06:32:37;;;;;;;9.52;5.85;;;22.20;99.90;;;;;;5033280;28;20583;-88
2022/07/24 06:35:03;;;;;;;6.45;5.13;;;22.10;99.90;;;;;;5034523;28;20199;-82
2022/07/24 06:37:28;;;;;;;6.32;5.30;;;22.00;99.90;;;;;;5034397;28;20215;-90
2022/07/24 06:39:54;;;;;;;5.70;4.82;;;22.10;99.90;;;;;;5033825;28;20164;-86
2022/07/24 06:42:19;;;;;;;7.45;5.50;;;22.10;99.90;;;;;;5035259;28;20697;-90
2022/07/24 06:44:45;;;;;;;7.10;5.40;;;22.10;99.90;;;;;;5034639;28;20172;-89
2022/07/24 06:47:10;;;;;;;7.15;5.95;;;22.20;99.90;;;;;;5033560;28;20663;-83
2022/07/24 06:49:36;;;;;;;7.07;5.00;;;22.20;99.90;;;;;;5033903;28;20159;-79
2022/07/24 06:52:02;;;;;;;7.55;5.65;;;22.30;99.90;;;;;;5033431;28;20167;-79
2022/07/24 06:54:28;;;;;;;8.73;5.13;;;22.30;99.90;;;;;;5032209;28;20175;-80
2022/07/24 06:56:53;;;;;;;12.50;5.30;;;22.40;99.90;;;;;;5033374;28;20216;-88
2022/07/24 06:59:20;;;;;;;5.07;4.57;;;22.50;99.90;;;;;;5033664;28;20188;-84
2022/07/24 07:01:45;;;;;;;7.18;4.68;;;22.60;99.90;;;;;;5032871;28;20164;-83
2022/07/24 07:04:11;;;;;;;4.82;4.20;;;22.70;99.90;;;;;;5032383;28;20535;-84
2022/07/24 07:06:37;;;;;;;5.45;4.60;;;22.80;99.90;;;;;;5032972;28;20826;-84
2022/07/24 07:09:02;;;;;;;5.68;4.20;;;22.90;99.90;;;;;;5033375;28;20198;-84
2022/07/24 07:11:28;;;;;;;9.43;4.55;;;22.90;99.90;;;;;;5033796;28;20497;-83
2022/07/24 07:13:54;;;;;;;8.05;4.07;;;23.00;99.90;;;;;;5033463;28;20168;-84
2022/07/24 07:16:19;;;;;;;7.45;3.55;;;23.00;99.90;;;;;;5031658;28;20233;-81
2022/07/24 07:18:45;;;;;;;8.57;4.35;;;23.20;99.90;;;;;;5033108;28;20179;-81
2022/07/24 07:21:14;;;;;;;7.45;3.65;;;23.40;99.90;;;;;;5032993;28;20221;-82
2022/07/24 07:23:39;;;;;;;9.50;3.65;;;23.70;99.90;;;;;;5034222;28;20171;-80
2022/07/24 07:26:05;;;;;;;9.93;7.03;;;24.40;99.90;;;;;;5037964;28;20197;-81
2022/07/24 07:28:30;;;;;;;4.07;3.67;;;25.30;99.90;;;;;;5033258;28;20524;-81
2022/07/24 07:30:56;;;;;;;3.10;2.78;;;26.30;99.90;;;;;;5032970;28;20199;-80
2022/07/24 07:33:21;;;;;;;2.65;2.45;;;27.00;99.90;;;;;;5032761;28;20160;-82
2022/07/24 07:35:47;;;;;;;4.20;2.30;;;27.70;99.90;;;;;;5032174;28;20194;-81
2022/07/24 07:38:13;;;;;;;3.25;1.95;;;28.20;99.90;;;;;;5031193;28;20211;-82
2022/07/24 07:40:38;;;;;;;3.03;2.03;;;28.50;99.90;;;;;;5031685;28;20698;-81
2022/07/24 07:43:04;;;;;;;5.82;3.10;;;29.40;99.90;;;;;;5032467;28;20233;-82
2022/07/24 07:45:30;;;;;;;8.65;3.17;;;30.00;99.90;;;;;;5032121;28;20643;-83
2022/07/24 07:47:55;;;;;;;4.07;2.85;;;30.70;99.90;;;;;;5032290;28;20175;-81
2022/07/24 07:50:21;;;;;;;4.15;2.88;;;30.10;99.90;;;;;;5032500;28;20167;-81
2022/07/24 07:52:46;;;;;;;2.38;2.15;;;30.20;99.90;;;;;;5033210;28;20203;-87
2022/07/24 07:55:12;;;;;;;4.30;2.08;;;29.80;99.90;;;;;;5032255;28;20159;-87
2022/07/24 07:57:41;;;;;;;1.98;1.88;;;29.30;99.90;;;;;;5032870;28;20316;-86
2022/07/24 08:00:07;;;;;;;6.22;2.33;;;28.60;99.90;;;;;;5031533;28;20221;-84
2022/07/24 08:02:33;;;;;;;2.85;1.85;;;28.20;99.90;;;;;;5032764;28;20168;-84
2022/07/24 08:04:59;;;;;;;2.17;1.75;;;27.80;99.90;;;;;;5032551;28;20254;-84
2022/07/24 08:07:24;;;;;;;2.38;2.05;;;27.60;99.90;;;;;;5031384;28;20199;-84
2022/07/24 08:09:50;;;;;;;1.70;1.60;;;27.30;99.90;;;;;;5033019;28;20628;-84
2022/07/24 08:12:15;;;;;;;4.47;1.88;;;27.10;99.90;;;;;;5032914;28;20283;-83
2022/07/24 08:14:41;;;;;;;5.10;1.90;;;26.90;99.90;;;;;;5031963;28;20259;-84
2022/07/24 08:17:06;;;;;;;2.60;1.88;;;26.80;99.90;;;;;;5043123;28;20207;-84
2022/07/24 08:19:32;;;;;;;2.95;1.95;;;26.50;99.90;;;;;;5047932;28;20183;-85
2022/07/24 08:21:57;;;;;;;2.00;1.77;;;26.60;99.90;;;;;;5046537;28;20180;-83
2022/07/24 08:24:23;;;;;;;6.95;2.10;;;26.50;99.90;;;;;;5044565;28;20495;-83
2022/07/24 08:26:49;;;;;;;2.92;2.08;;;26.40;99.90;;;;;;5047008;28;20228;-83
2022/07/24 08:29:15;;;;;;;14.45;1.83;;;26.40;99.90;;;;;;5049462;28;20180;-83
2022/07/24 08:31:41;;;;;;;2.00;1.80;;;26.40;99.90;;;;;;5056048;28;20152;-83
2022/07/24 08:34:06;;;;;;;2.00;1.40;;;26.40;99.90;;;;;;5054572;28;20545;-83
2022/07/24 08:36:32;;;;;;;1.98;1.42;;;26.60;99.90;;;;;;5055349;28;20263;-82
2022/07/24 08:38:58;;;;;;;6.63;1.85;;;26.50;99.90;;;;;;5054773;28;20190;-83
2022/07/24 08:41:24;;;;;;;10.90;1.70;;;26.60;99.90;;;;;;5047481;28;20327;-84
2022/07/24 08:43:50;;;;;;;10.25;1.90;;;26.80;99.90;;;;;;5036728;28;20694;-83
2022/07/24 08:46:16;;;;;;;4.03;1.60;;;27.10;99.90;;;;;;5035182;28;20203;-83
2022/07/24 08:48:45;;;;;;;2.60;1.60;;;27.10;99.90;;;;;;5035426;28;20591;-83
2022/07/24 08:51:15;;;;;;;1.77;1.48;;;27.20;99.90;;;;;;5035085;28;20165;-83
2022/07/24 08:53:42;;;;;;;5.88;1.50;;;27.30;99.90;;;;;;5035319;28;20620;-84
2022/07/24 08:56:09;;;;;;;2.15;1.50;;;27.40;99.90;;;;;;5051681;28;20753;-83
2022/07/24 08:58:39;;;;;;;1.58;1.20;;;27.60;99.90;;;;;;5035365;28;20662;-83
2022/07/24 09:01:05;;;;;;;8.98;1.63;;;27.60;99.90;;;;;;5034584;28;20179;-82
2022/07/24 09:03:45;;;;;;;1.30;1.20;;;27.70;99.90;;;;;;5035961;28;20180;-83
2022/07/24 09:06:12;;;;;;;3.45;1.30;;;27.70;99.90;;;;;;5034155;28;20655;-84
2022/07/24 09:08:59;;;;;;;4.20;1.40;;;27.80;99.90;;;;;;5035922;28;20242;-84
2022/07/24 09:11:28;;;;;;;7.32;1.40;;;27.60;99.90;;;;;;5034846;28;20684;-85
2022/07/24 09:16:43;;;;;;;10.05;1.42;;;27.80;99.90;;;;;;5036286;28;20615;-85
2022/07/24 09:19:09;;;;;;;5.47;1.20;;;28.20;99.90;;;;;;5034428;28;20191;-84
2022/07/24 09:21:37;;;;;;;2.15;1.30;;;28.20;99.90;;;;;;5034735;28;20226;-85
2022/07/24 09:24:32;;;;;;;1.60;1.45;;;28.30;99.90;;;;;;5033338;28;20533;-81
2022/07/24 09:26:58;;;;;;;3.33;1.25;;;28.40;99.90;;;;;;5021184;28;20205;-86
2022/07/24 09:29:25;;;;;;;1.38;1.25;;;28.40;99.90;;;;;;5050375;28;20652;-86
2022/07/24 09:32:03;;;;;;;1.63;1.45;;;28.30;99.90;;;;;;5033238;28;20168;-86
2022/07/24 09:34:38;;;;;;;6.10;1.60;;;28.50;99.90;;;;;;5034052;28;20171;-85
2022/07/24 09:37:06;;;;;;;2.80;1.65;;;28.40;99.90;;;;;;5034397;28;20256;-88
2022/07/24 09:39:35;;;;;;;2.17;1.45;;;28.40;99.90;;;;;;5034836;28;20171;-85
2022/07/24 09:42:04;;;;;;;1.88;1.50;;;28.30;99.90;;;;;;5033277;28;20187;-87
2022/07/24 09:44:30;;;;;;;9.40;1.17;;;28.20;99.90;;;;;;5034893;28;20233;-87
2022/07/24 09:47:04;;;;;;;1.73;1.00;;;28.30;99.90;;;;;;5033984;28;20206;-85
2022/07/24 09:49:31;;;;;;;1.30;1.20;;;28.30;99.90;;;;;;5037349;28;20166;-84
2022/07/24 09:52:13;;;;;;;2.53;1.10;;;28.20;99.90;;;;;;5043278;28;20167;-81
2022/07/24 09:54:45;;;;;;;1.65;1.42;;;28.40;99.90;;;;;;5041512;28;20271;-83
2022/07/24 09:57:21;;;;;;;6.40;1.27;;;28.60;99.90;;;;;;5035043;28;20262;-88
2022/07/24 10:00:01;;;;;;;4.03;1.35;;;28.60;99.90;;;;;;5033618;28;20713;-89
2022/07/24 10:02:32;;;;;;;1.70;1.17;;;28.60;99.90;;;;;;5035113;28;20533;-85
2022/07/24 10:05:00;;;;;;;2.03;1.10;;;28.60;99.90;;;;;;5034546;28;20176;-83
2022/07/24 10:07:27;;;;;;;1.40;1.30;;;28.70;99.90;;;;;;5033762;28;20529;-85
2022/07/24 10:09:55;;;;;;;4.40;1.65;;;28.80;99.90;;;;;;5033887;28;20199;-86
2022/07/24 10:12:23;;;;;;;5.05;1.45;;;28.80;99.90;;;;;;5033748;28;20164;-89
2022/07/24 10:14:52;;;;;;;1.40;1.15;;;28.90;99.90;;;;;;5033927;28;20517;-86
2022/07/24 10:17:18;;;;;;;3.78;1.48;;;29.10;99.90;;;;;;5033446;28;20290;-84
2022/07/24 10:19:46;;;;;;;1.35;1.20;;;29.10;99.90;;;;;;4994602;28;1127380;-83
2022/07/24 10:22:22;;;;;;;3.80;1.30;;;29.10;99.90;;;;;;5034703;28;20164;-86
2022/07/24 10:24:48;;;;;;;7.72;1.52;;;29.00;99.90;;;;;;5034323;28;20191;-89
2022/07/24 10:27:35;;;;;;;1.30;1.20;;;28.80;99.90;;;;;;5033785;28;20296;-82
2022/07/24 10:30:10;;;;;;;1.50;1.40;;;28.90;99.90;;;;;;5033557;28;20171;-83
2022/07/24 10:32:39;;;;;;;13.55;1.35;;;28.90;99.90;;;;;;5033238;28;20179;-86
2022/07/24 10:35:19;;;;;;;1.70;1.48;;;29.10;99.90;;;;;;5032433;28;20199;-85
2022/07/24 10:38:00;;;;;;;3.60;1.65;;;29.20;99.90;;;;;;5034305;28;20207;-85
2022/07/24 10:40:25;;;;;;;1.27;1.17;;;29.30;99.90;;;;;;5035477;28;20205;-85
2022/07/24 10:43:09;;;;;;;1.77;1.17;;;29.40;99.90;;;;;;5038489;28;20172;-85
2022/07/24 10:45:44;;;;;;;1.55;1.45;;;29.40;99.90;;;;;;5036391;28;20191;-86
2022/07/24 10:48:22;;;;;;;5.85;1.23;;;29.50;99.90;;;;;;5034175;28;20225;-86
2022/07/24 10:51:09;;;;;;;1.38;1.10;;;29.50;99.90;;;;;;5038486;28;20179;-86
2022/07/24 10:53:41;;;;;;;1.65;1.40;;;29.40;99.90;;;;;;5034843;28;20172;-87
2022/07/24 10:56:38;;;;;;;2.05;1.55;;;29.50;99.90;;;;;;5035267;28;20195;-86
2022/07/24 10:59:07;;;;;;;1.88;1.30;;;29.50;99.90;;;;;;5037291;28;20205;-86
2022/07/24 11:01:42;;;;;;;2.38;1.20;;;29.40;99.90;;;;;;5023587;28;20177;-87
2022/07/24 11:04:24;;;;;;;1.45;1.35;;;29.40;99.90;;;;;;5026705;28;20179;-84
2022/07/24 11:06:51;;;;;;;3.00;1.25;;;29.60;99.90;;;;;;5034239;28;20717;-87
2022/07/24 11:09:21;;;;;;;1.73;1.63;;;29.50;99.90;;;;;;5027855;28;20169;-83
2022/07/24 11:12:17;;;;;;;1.98;1.33;;;29.50;99.90;;;;;;5021590;28;20199;-81
2022/07/24 11:14:48;;;;;;;1.13;1.02;;;29.60;99.90;;;;;;5025068;28;20168;-82
2022/07/24 11:17:39;;;;;;;4.25;1.20;;;29.70;99.90;;;;;;5023109;28;20215;-81
2022/07/24 11:20:13;;;;;;;2.05;1.30;;;29.70;99.90;;;;;;5026779;28;20251;-81
2022/07/24 11:22:44;;;;;;;5.70;1.75;;;29.70;99.90;;;;;;5026615;28;20187;-83
2022/07/24 11:25:24;;;;;;;5.70;1.23;;;29.60;99.90;;;;;;5025213;28;20172;-83
2022/07/24 11:27:57;;;;;;;4.45;1.75;;;29.60;99.90;;;;;;5020790;28;20170;-83
2022/07/24 11:30:31;;;;;;;1.58;1.48;;;29.70;99.90;;;;;;5015610;28;20164;-83
2022/07/24 11:33:02;;;;;;;1.48;1.30;;;29.70;99.90;;;;;;5038407;28;20620;-85
2022/07/24 11:35:40;;;;;;;3.33;1.65;;;29.70;99.90;;;;;;5023466;28;20188;-84
2022/07/24 11:38:07;;;;;;;1.90;1.60;;;29.80;99.90;;;;;;5024706;28;20238;-84
2022/07/24 11:40:34;;;;;;;6.03;1.92;;;30.10;99.90;;;;;;5024305;28;20168;-83
2022/07/24 11:43:03;;;;;;;1.35;1.25;;;30.00;99.90;;;;;;5026836;28;20171;-84
2022/07/24 11:45:29;;;;;;;2.40;1.65;;;29.90;99.90;;;;;;5029237;28;20192;-82
2022/07/24 11:47:55;;;;;;;3.17;1.60;;;30.00;99.90;;;;;;5023345;28;20171;-83
2022/07/24 11:50:25;;;;;;;2.17;1.60;;;30.00;99.90;;;;;;5017847;28;20167;-83
2022/07/24 11:52:52;;;;;;;2.70;1.75;;;30.00;99.90;;;;;;5015774;28;20213;-86
2022/07/24 11:55:20;;;;;;;1.70;1.60;;;29.90;99.90;;;;;;5014139;28;20172;-84
2022/07/24 11:57:51;;;;;;;1.88;1.60;;;30.00;99.90;;;;;;5013494;28;20207;-82
2022/07/24 12:00:21;;;;;;;4.80;1.98;;;30.20;99.90;;;;;;5012413;28;20176;-82
2022/07/24 12:02:53;;;;;;;1.77;1.40;;;30.20;99.90;;;;;;5013711;28;20176;-82
2022/07/24 12:05:38;;;;;;;2.13;2.03;;;30.20;99.90;;;;;;5015075;28;20329;-81
2022/07/24 12:08:15;;;;;;;3.08;2.00;;;30.30;99.90;;;;;;5016570;28;20168;-82
2022/07/24 12:10:41;;;;;;;4.28;1.75;;;30.20;99.90;;;;;;5018305;28;20222;-85
2022/07/24 12:13:07;;;;;;;2.85;1.98;;;30.20;99.90;;;;;;5025998;28;20172;-82
2022/07/24 12:15:38;;;;;;;3.22;1.80;;;30.00;99.90;;;;;;5033134;28;20275;-81
2022/07/24 12:18:06;;;;;;;5.95;1.83;;;30.10;99.90;;;;;;5029251;28;20203;-84
2022/07/24 12:20:38;;;;;;;1.67;1.55;;;30.00;99.90;;;;;;5017329;28;20555;-84
2022/07/24 12:23:25;;;;;;;3.20;1.23;;;30.20;99.90;;;;;;5017203;28;20501;-82
2022/07/24 12:25:51;;;;;;;6.15;1.80;;;30.30;99.90;;;;;;5019814;28;20196;-83
2022/07/24 12:28:18;;;;;;;1.67;1.58;;;30.30;99.90;;;;;;5019170;28;20636;-85
2022/07/24 12:30:46;;;;;;;2.72;1.75;;;30.20;99.90;;;;;;5019272;28;20579;-85
2022/07/24 12:33:15;;;;;;;4.22;1.70;;;30.30;99.90;;;;;;5018756;28;20703;-84
2022/07/24 12:36:00;;;;;;;2.40;1.85;;;30.30;99.90;;;;;;5016699;28;20203;-84
2022/07/24 12:38:32;;;;;;;3.60;2.05;;;30.30;99.90;;;;;;5017623;28;20730;-85
2022/07/24 12:41:19;;;;;;;2.00;1.90;;;30.40;99.90;;;;;;5015413;28;20259;-85
2022/07/24 12:43:51;;;;;;;4.05;2.15;;;30.50;99.90;;;;;;5015958;28;20176;-84
2022/07/24 12:46:20;;;;;;;1.65;1.55;;;30.60;99.90;;;;;;5031361;28;20208;-84